Language selection

My Weather Profile Weather Topics  | 

Lake Winnipeg - south basin: Past 24 Hour Conditions

 

George Island

09:00 AM CST 01 February 2023
Disclaimer

This table is a summary of hourly weather conditions for the past 24 hours.
Please note that these observations might not always be representative of weather conditions over their associated marine area.

Date / Time
(CST)
Wind(knots) Conditions Visibility(km) Pressure(kPa) Air tempC) Relative humidity(%) Dew pointC) Wind Chill
01 February 2023
9:00 SW 9 N/A N/A 101.8 -32 73 -35 -44
8:00 SW 9 N/A N/A 101.8 -31 74 -34 -43
7:00 WSW 9 N/A N/A 101.8 -30 77 -33 -42
6:00 SW 7 N/A N/A 101.9 -32 74 -35 -43
5:00 W 3 N/A N/A 101.9 -29 75 -32 -36
4:00 W 3 N/A N/A 101.9 -30 74 -33 -36
3:00 W 4 N/A N/A 101.9 -28 75 -31 -36
2:00 WNW 7 N/A N/A 101.9 -29 75 -32 -39
1:00 WSW 7 N/A N/A 101.9 -29 76 -32 -40
0:00 WSW 8 N/A N/A 101.9 -30 76 -33 -42
31 January 2023
23:00 WSW 7 N/A N/A 101.9 -30 77 -32 -40
22:00 WSW 6 N/A N/A 101.9 -30 78 -33 -40
21:00 WSW 5 N/A N/A 101.9 -32 75 -35 -41
20:00 WNW 1 N/A N/A 102.0 -31 74 -34 -33
19:00 NNW 3 N/A N/A 102.0 -29 76 -32 -35
18:00 NW 5 N/A N/A 102.0 -29 78 -32 -38
17:00 WNW 5 N/A N/A 102.0 -28 74 -31 -36
16:00 NW 4 N/A N/A 101.9 -27 70 -31 -34
15:00 NW 3 N/A N/A 101.9 -26 70 -30 -31
14:00 NNW 4 N/A N/A 101.9 -27 69 -31 -33
13:00 NW 3 N/A N/A 101.9 -27 70 -31 -33
12:00 NW 5 N/A N/A 101.9 -28 71 -32 -36
11:00 NW 6 N/A N/A 101.9 -28 72 -32 -38
10:00 NW 9 N/A N/A 101.9 -29 73 -32 -40
9:00 WNW 9 N/A N/A 101.8 -29 77 -31 -40

Zoom-in to make a selection

Map of Prairies - Manitoba Lakes marine weather areas Lake Winnipeg South Basin - 45140 Lake Winnipeg North - 45144 Lake Winnipeg Narrows - 45145 Lake Of the Woods - 45148 Carberry Portage Southport Airport Wasagaming Sprague Winnipeg Richardson Int'l Airport Berens River Airport George Island Fisher Branch Gimli Harbour Gimli Grand Rapids Victoria Beach Dauphin Airport McCreary Oak Point Marine Swan River Norway House Airport Kenora Airport Royal Island
Legend:
buoy Buoy
land station Land Station

Prairies - Manitoba Lakes Area

Another Region

What we are doing

Date modified: